Time;durP1;ratioP1;P1;durP2;ratioP2;P2;SDS_P1;SDS_P2;PMS_P1;PMS_P2;Temp;Humidity;BMP_temperature;BMP_pressure;BME280_temperature;BME280_humidity;BME280_pressure;Samples;Min_cycle;Max_cycle;Signal;HPM_P1;HPM_P2
2023/05/23 00:00:18;;;;;;;5.30;5.10;;;21.20;70.00;;;;;;5091209;27;43496;-70
2023/05/23 00:02:47;;;;;;;4.90;4.80;;;21.20;69.90;;;;;;5090924;27;43390;-69
2023/05/23 00:05:16;;;;;;;5.00;4.90;;;21.20;69.90;;;;;;5091724;28;43894;-72
2023/05/23 00:07:46;;;;;;;5.27;5.17;;;21.20;70.20;;;;;;5099387;27;43861;-69
2023/05/23 00:10:14;;;;;;;4.97;4.83;;;21.20;70.10;;;;;;5093896;28;43482;-70
2023/05/23 00:12:42;;;;;;;5.53;5.33;;;21.30;69.90;;;;;;5093488;28;43455;-70
2023/05/23 00:15:11;;;;;;;5.30;5.10;;;21.50;69.60;;;;;;5092620;28;45311;-69
2023/05/23 00:17:39;;;;;;;5.47;5.37;;;21.50;69.10;;;;;;5093860;27;43427;-69
2023/05/23 00:20:08;;;;;;;4.67;4.57;;;21.60;69.00;;;;;;5086629;27;43454;-69
2023/05/23 00:22:40;;;;;;;5.27;5.17;;;21.60;68.90;;;;;;5093581;27;43438;-69
2023/05/23 00:25:10;;;;;;;5.03;4.87;;;21.50;69.70;;;;;;5087549;27;44064;-69
2023/05/23 00:27:38;;;;;;;5.23;5.13;;;21.50;69.20;;;;;;5093940;27;43368;-69
2023/05/23 00:30:07;;;;;;;4.83;4.70;;;21.40;69.50;;;;;;5097200;27;43535;-69
2023/05/23 00:32:35;;;;;;;4.70;4.60;;;21.40;69.50;;;;;;5094603;27;43382;-69
2023/05/23 00:35:04;;;;;;;5.17;5.07;;;21.40;69.60;;;;;;5092796;28;45966;-70
2023/05/23 00:37:33;;;;;;;5.20;5.10;;;21.40;69.60;;;;;;5094468;27;43433;-69
2023/05/23 00:40:01;;;;;;;5.07;4.90;;;21.30;69.80;;;;;;5088814;28;44032;-71
2023/05/23 00:42:31;;;;;;;5.07;4.97;;;21.30;69.80;;;;;;5092117;28;43900;-69
2023/05/23 00:44:59;;;;;;;4.70;4.60;;;21.30;69.80;;;;;;5093549;27;43614;-70
2023/05/23 00:47:27;;;;;;;4.93;4.83;;;21.30;69.70;;;;;;5090213;27;43369;-70
2023/05/23 00:49:55;;;;;;;5.00;4.87;;;21.30;69.80;;;;;;5093496;28;43308;-69
2023/05/23 00:52:23;;;;;;;5.50;5.30;;;21.20;70.00;;;;;;5091289;27;44078;-69
2023/05/23 00:54:51;;;;;;;4.90;4.80;;;21.20;70.10;;;;;;5090192;28;43735;-69
2023/05/23 00:57:19;;;;;;;5.30;5.20;;;21.30;69.80;;;;;;5093480;27;43364;-69
2023/05/23 00:59:48;;;;;;;4.90;4.80;;;21.40;69.50;;;;;;5093363;27;43452;-69
2023/05/23 01:02:16;;;;;;;4.80;4.60;;;21.50;69.10;;;;;;5093887;27;43351;-70
2023/05/23 01:04:44;;;;;;;5.10;5.00;;;21.60;69.00;;;;;;5091514;27;45899;-70
2023/05/23 01:07:12;;;;;;;5.07;4.97;;;21.60;68.90;;;;;;5092618;28;44430;-69
2023/05/23 01:09:40;;;;;;;4.50;4.40;;;21.50;69.00;;;;;;5090556;27;43327;-69
2023/05/23 01:12:15;;;;;;;4.73;4.63;;;21.40;69.00;;;;;;5091573;28;43489;-69
2023/05/23 01:14:46;;;;;;;5.30;5.00;;;21.40;69.60;;;;;;5093219;28;44472;-70
2023/05/23 01:17:19;;;;;;;4.90;4.80;;;21.40;69.70;;;;;;5094042;27;43429;-70
2023/05/23 01:19:52;;;;;;;4.87;4.77;;;21.40;69.70;;;;;;5093275;27;43417;-69
2023/05/23 01:22:23;;;;;;;4.73;4.63;;;21.30;69.60;;;;;;5093966;27;43327;-69
2023/05/23 01:24:55;;;;;;;4.80;4.70;;;21.30;69.60;;;;;;5092027;28;45756;-70
2023/05/23 01:27:28;;;;;;;5.03;4.93;;;21.20;69.90;;;;;;5087514;28;43332;-69
2023/05/23 01:29:58;;;;;;;5.03;4.93;;;21.30;69.90;;;;;;5091256;28;43388;-69
2023/05/23 01:32:26;;;;;;;4.20;4.10;;;21.30;69.80;;;;;;5093817;28;43969;-69
2023/05/23 01:34:54;;;;;;;4.90;4.80;;;21.20;69.70;;;;;;5091020;28;45971;-69
2023/05/23 01:37:22;;;;;;;5.10;5.00;;;21.20;69.80;;;;;;5091694;28;44969;-69
2023/05/23 01:39:51;;;;;;;5.47;5.27;;;21.20;70.10;;;;;;5094016;27;43358;-69
2023/05/23 01:42:19;;;;;;;4.87;4.77;;;21.30;70.10;;;;;;5088245;28;43411;-69
2023/05/23 01:44:47;;;;;;;5.10;5.00;;;21.40;69.80;;;;;;5091429;27;45265;-70
2023/05/23 01:47:16;;;;;;;5.10;5.00;;;21.40;69.30;;;;;;5093655;28;43953;-69
2023/05/23 01:49:45;;;;;;;4.97;4.77;;;21.50;69.10;;;;;;5086198;28;43438;-71
2023/05/23 01:52:14;;;;;;;4.73;4.63;;;21.60;69.10;;;;;;5092020;27;43441;-69
2023/05/23 01:54:42;;;;;;;4.80;4.70;;;21.50;69.10;;;;;;5091421;28;45705;-69
2023/05/23 01:57:10;;;;;;;4.90;4.80;;;21.50;69.20;;;;;;5092776;28;43346;-69
2023/05/23 01:59:38;;;;;;;4.90;4.80;;;21.40;69.30;;;;;;5090373;27;43506;-70
2023/05/23 02:02:06;;;;;;;5.00;4.90;;;21.30;69.60;;;;;;5091640;28;43461;-70
2023/05/23 02:04:36;;;;;;;5.00;4.90;;;21.30;69.60;;;;;;5091032;28;45979;-70
2023/05/23 02:07:04;;;;;;;4.40;4.30;;;21.30;69.60;;;;;;5086663;28;44996;-70
2023/05/23 02:09:32;;;;;;;5.00;4.90;;;21.30;69.60;;;;;;5093000;27;43390;-69
2023/05/23 02:12:00;;;;;;;4.83;4.73;;;21.30;69.70;;;;;;5091315;28;43514;-69
2023/05/23 02:14:28;;;;;;;4.77;4.63;;;21.20;70.00;;;;;;5092366;27;44242;-69
2023/05/23 02:16:56;;;;;;;5.00;4.90;;;21.20;69.90;;;;;;5091236;28;44725;-69
2023/05/23 02:19:26;;;;;;;5.00;4.90;;;21.20;69.80;;;;;;5091244;28;43464;-69
2023/05/23 02:21:55;;;;;;;5.00;4.90;;;21.20;69.80;;;;;;5089637;27;43418;-70
2023/05/23 02:24:24;;;;;;;5.13;5.03;;;21.20;70.10;;;;;;5090838;28;46257;-70
2023/05/23 02:26:52;;;;;;;4.80;4.70;;;21.20;70.10;;;;;;5090931;28;44644;-69
2023/05/23 02:29:22;;;;;;;5.03;4.93;;;21.20;69.80;;;;;;5091229;28;43937;-69
2023/05/23 02:31:50;;;;;;;4.90;4.80;;;21.40;69.70;;;;;;5091696;28;43569;-70
2023/05/23 02:34:18;;;;;;;5.07;4.97;;;21.50;69.10;;;;;;5090706;28;45423;-69
2023/05/23 02:36:46;;;;;;;4.50;4.40;;;21.60;68.90;;;;;;5090640;28;45097;-69
2023/05/23 02:39:16;;;;;;;4.90;4.80;;;21.60;68.90;;;;;;5092290;27;43415;-70
2023/05/23 02:41:45;;;;;;;5.07;4.97;;;21.50;68.80;;;;;;5091689;28;43410;-72
2023/05/23 02:44:13;;;;;;;5.17;4.97;;;21.50;69.00;;;;;;5091560;28;45707;-69
2023/05/23 02:46:42;;;;;;;4.90;4.80;;;21.40;69.30;;;;;;5090604;28;44894;-70
2023/05/23 02:49:10;;;;;;;5.30;5.10;;;21.40;69.50;;;;;;5088374;27;43406;-70
2023/05/23 02:51:38;;;;;;;5.20;5.10;;;21.30;69.40;;;;;;5089366;28;43421;-69
2023/05/23 02:54:06;;;;;;;4.77;4.67;;;21.30;69.50;;;;;;5092522;27;43626;-70
2023/05/23 02:56:38;;;;;;;5.27;5.07;;;21.30;69.50;;;;;;5088827;27;44782;-70
2023/05/23 02:59:06;;;;;;;4.83;4.73;;;21.20;69.80;;;;;;5090398;28;43381;-69
2023/05/23 03:01:34;;;;;;;4.90;4.80;;;21.20;69.80;;;;;;5092002;27;43404;-69
2023/05/23 03:04:03;;;;;;;4.73;4.63;;;21.20;69.80;;;;;;5090193;28;44048;-70
2023/05/23 03:06:32;;;;;;;4.97;4.87;;;21.20;69.70;;;;;;5090208;28;45003;-69
2023/05/23 03:09:01;;;;;;;5.47;5.27;;;21.20;69.70;;;;;;5090870;27;43411;-69
2023/05/23 03:11:29;;;;;;;5.23;5.13;;;21.10;70.00;;;;;;5090415;28;43397;-69
2023/05/23 03:14:00;;;;;;;5.23;5.13;;;21.20;70.10;;;;;;5091750;27;43989;-69
2023/05/23 03:16:29;;;;;;;5.30;5.10;;;21.30;69.70;;;;;;5091808;27;44447;-70
2023/05/23 03:18:57;;;;;;;5.10;5.00;;;21.40;69.70;;;;;;5091788;27;43477;-70
2023/05/23 03:21:27;;;;;;;4.83;4.73;;;21.30;69.40;;;;;;5092492;27;43987;-69
2023/05/23 03:23:56;;;;;;;5.13;5.03;;;21.40;69.60;;;;;;5089080;28;45432;-70
2023/05/23 03:26:25;;;;;;;5.07;4.77;;;21.30;69.60;;;;;;5086382;28;44883;-71
2023/05/23 03:28:52;;;;;;;4.80;4.70;;;21.30;69.60;;;;;;5089156;28;43395;-69
2023/05/23 03:31:22;;;;;;;5.47;5.27;;;21.30;69.60;;;;;;5090204;28;43364;-69
2023/05/23 03:33:50;;;;;;;4.90;4.80;;;21.30;69.60;;;;;;5089909;28;46121;-69
2023/05/23 03:36:18;;;;;;;5.57;5.47;;;21.30;69.70;;;;;;5091460;27;43756;-69
2023/05/23 03:38:46;;;;;;;4.83;4.73;;;21.20;69.80;;;;;;5090012;28;43398;-70
2023/05/23 03:41:15;;;;;;;5.13;5.03;;;21.20;69.80;;;;;;5089907;27;43551;-69
2023/05/23 03:43:44;;;;;;;5.17;5.07;;;21.20;69.80;;;;;;5088730;27;45708;-69
2023/05/23 03:46:12;;;;;;;5.13;4.97;;;21.20;69.70;;;;;;5090357;28;43474;-70
2023/05/23 03:48:43;;;;;;;5.33;5.23;;;21.20;69.90;;;;;;5090360;28;43474;-70
2023/05/23 03:51:12;;;;;;;5.67;5.47;;;21.20;70.10;;;;;;5083613;28;43562;-70
2023/05/23 03:53:41;;;;;;;4.70;4.60;;;21.20;69.90;;;;;;5091618;27;44021;-69
2023/05/23 03:56:09;;;;;;;5.27;5.10;;;21.40;69.60;;;;;;5084022;28;44700;-70
2023/05/23 03:58:37;;;;;;;5.20;5.10;;;21.50;69.10;;;;;;5092157;27;43352;-70
2023/05/23 04:01:12;;;;;;;5.67;5.47;;;21.50;68.90;;;;;;5087675;28;43431;-70
2023/05/23 04:03:40;;;;;;;5.40;5.03;;;21.50;68.90;;;;;;5086279;27;45616;-70
2023/05/23 04:06:10;;;;;;;5.80;5.50;;;21.50;69.00;;;;;;5090705;27;44696;-69
2023/05/23 04:08:44;;;;;;;5.50;5.30;;;21.40;69.00;;;;;;5090064;28;44001;-70
2023/05/23 04:11:12;;;;;;;5.33;5.03;;;21.40;69.60;;;;;;5090665;28;43898;-69
2023/05/23 04:13:41;;;;;;;5.80;5.50;;;21.30;69.60;;;;;;5083776;27;43823;-70
2023/05/23 04:16:10;;;;;;;5.40;5.20;;;21.30;69.60;;;;;;5089140;28;44505;-70
2023/05/23 04:18:42;;;;;;;5.40;5.20;;;21.20;69.50;;;;;;5084756;28;43912;-70
2023/05/23 04:21:11;;;;;;;6.20;5.90;;;21.20;69.60;;;;;;5090844;28;43425;-69
2023/05/23 04:23:48;;;;;;;6.00;5.47;;;21.20;70.00;;;;;;5088715;28;44060;-72
2023/05/23 04:26:16;;;;;;;6.10;5.67;;;21.20;69.80;;;;;;5090616;28;43524;-70
2023/05/23 04:28:49;;;;;;;5.20;5.00;;;21.20;69.80;;;;;;5088894;28;43408;-70
2023/05/23 04:31:17;;;;;;;6.03;5.73;;;21.20;69.90;;;;;;5088907;28;43524;-69
2023/05/23 04:33:46;;;;;;;6.00;5.70;;;21.10;69.90;;;;;;5089104;28;45847;-69
2023/05/23 04:36:17;;;;;;;6.07;5.67;;;21.10;70.20;;;;;;5089836;28;43473;-69
2023/05/23 04:38:49;;;;;;;5.77;5.40;;;21.20;70.20;;;;;;5088434;27;43560;-70
2023/05/23 04:41:22;;;;;;;6.13;5.73;;;21.30;69.70;;;;;;5090102;28;44013;-70
2023/05/23 04:44:10;;;;;;;6.40;5.80;;;21.40;69.30;;;;;;5070926;28;43659;-69
2023/05/23 04:46:44;;;;;;;6.07;5.67;;;21.50;69.10;;;;;;5089493;27;44828;-69
2023/05/23 04:49:39;;;;;;;6.53;6.03;;;21.50;69.00;;;;;;5089269;27;43412;-71
2023/05/23 04:52:09;;;;;;;6.80;6.17;;;21.40;69.00;;;;;;5090872;27;43390;-71
2023/05/23 04:54:43;;;;;;;6.30;5.83;;;21.40;69.10;;;;;;5091922;28;44115;-69
2023/05/23 04:57:12;;;;;;;6.63;5.97;;;21.30;69.60;;;;;;5092089;28;44983;-69
2023/05/23 04:59:41;;;;;;;6.90;6.30;;;21.30;69.60;;;;;;5092788;28;43395;-69
2023/05/23 05:02:10;;;;;;;5.83;5.50;;;21.20;69.50;;;;;;5092693;28;43418;-69
2023/05/23 05:04:38;;;;;;;6.10;5.50;;;21.20;69.60;;;;;;5092763;27;43848;-70
2023/05/23 05:07:06;;;;;;;6.47;5.97;;;21.20;69.60;;;;;;5092695;27;44433;-69
2023/05/23 05:09:38;;;;;;;6.30;5.90;;;21.20;70.10;;;;;;5088338;27;43502;-70
2023/05/23 05:12:08;;;;;;;6.50;6.00;;;21.20;70.10;;;;;;5088483;28;43441;-70
2023/05/23 05:14:36;;;;;;;6.13;5.63;;;21.20;70.00;;;;;;5093481;28;44979;-70
2023/05/23 05:17:05;;;;;;;5.90;5.50;;;21.20;70.00;;;;;;5093137;27;43443;-69
2023/05/23 05:19:42;;;;;;;6.50;6.10;;;21.10;69.90;;;;;;5090471;28;44019;-69
2023/05/23 05:22:10;;;;;;;5.60;5.20;;;21.10;70.20;;;;;;5093978;27;43529;-70
2023/05/23 05:24:40;;;;;;;6.43;5.93;;;21.20;70.20;;;;;;5091986;28;43899;-69
2023/05/23 05:27:10;;;;;;;6.20;5.70;;;21.30;69.80;;;;;;5092411;27;44709;-70
2023/05/23 05:29:38;;;;;;;6.10;5.80;;;21.40;69.30;;;;;;5092011;28;43375;-70
2023/05/23 05:32:09;;;;;;;6.43;5.93;;;21.50;69.10;;;;;;5092447;28;43556;-69
2023/05/23 05:34:37;;;;;;;6.17;5.83;;;21.50;69.00;;;;;;5091827;28;45760;-70
2023/05/23 05:37:06;;;;;;;6.10;5.53;;;21.50;69.10;;;;;;5092076;28;43738;-70
2023/05/23 05:39:34;;;;;;;6.57;6.17;;;21.40;69.20;;;;;;5093571;28;44108;-69
2023/05/23 05:42:04;;;;;;;5.50;5.20;;;21.30;69.60;;;;;;5092239;28;43652;-70
2023/05/23 05:44:32;;;;;;;6.13;5.73;;;21.30;69.60;;;;;;5091272;27;45723;-69
2023/05/23 05:47:00;;;;;;;5.80;5.50;;;21.30;69.60;;;;;;5088825;28;44817;-69
2023/05/23 05:49:29;;;;;;;5.30;5.00;;;21.20;69.50;;;;;;5092015;27;43533;-69
2023/05/23 05:51:57;;;;;;;5.50;5.27;;;21.20;69.70;;;;;;5085531;28;43531;-69
2023/05/23 05:54:25;;;;;;;5.90;5.43;;;21.10;70.00;;;;;;5093044;28;43766;-69
2023/05/23 05:56:55;;;;;;;5.77;5.47;;;21.10;70.00;;;;;;5085711;27;43873;-70
2023/05/23 05:59:24;;;;;;;5.97;5.60;;;21.20;70.00;;;;;;5089663;28;43517;-70
2023/05/23 06:01:52;;;;;;;5.50;5.30;;;21.20;69.90;;;;;;5091715;28;43584;-69
2023/05/23 06:04:20;;;;;;;5.50;5.20;;;21.20;70.00;;;;;;5090047;27;44998;-72
2023/05/23 06:06:49;;;;;;;5.47;5.17;;;21.10;70.20;;;;;;5090415;28;44983;-69
2023/05/23 06:09:18;;;;;;;5.57;5.27;;;21.20;70.20;;;;;;5090567;28;43417;-69
2023/05/23 06:11:46;;;;;;;5.30;5.00;;;21.20;69.90;;;;;;5091651;27;43506;-71
2023/05/23 06:14:15;;;;;;;5.63;5.33;;;21.40;69.60;;;;;;5091553;28;45671;-71
2023/05/23 06:16:47;;;;;;;5.73;5.33;;;21.40;69.00;;;;;;5076065;28;45031;-71
2023/05/23 06:19:16;;;;;;;5.43;5.03;;;21.50;68.90;;;;;;5091724;28;43405;-72
2023/05/23 06:21:45;;;;;;;5.63;5.33;;;21.50;69.00;;;;;;5091437;27;43438;-70
2023/05/23 06:24:14;;;;;;;5.70;5.30;;;21.50;69.10;;;;;;5090916;28;43966;-70
2023/05/23 06:26:43;;;;;;;5.30;5.00;;;21.40;69.20;;;;;;5093333;27;43339;-70
2023/05/23 06:29:13;;;;;;;4.87;4.57;;;21.30;69.60;;;;;;5091720;28;43449;-70
2023/05/23 06:31:41;;;;;;;5.83;5.50;;;21.30;69.60;;;;;;5090729;28;43493;-70
2023/05/23 06:34:10;;;;;;;5.10;4.80;;;21.30;69.60;;;;;;5090736;28;46004;-71
2023/05/23 06:36:40;;;;;;;5.07;4.83;;;21.20;69.60;;;;;;5092649;27;43438;-70
2023/05/23 06:39:09;;;;;;;5.63;5.23;;;21.20;69.80;;;;;;5092242;27;43939;-69
2023/05/23 06:41:38;;;;;;;5.10;4.80;;;21.20;70.10;;;;;;5090747;27;43493;-70
2023/05/23 06:44:06;;;;;;;5.37;5.07;;;21.20;70.10;;;;;;5087454;28;45934;-70
2023/05/23 06:46:35;;;;;;;4.97;4.67;;;21.10;69.90;;;;;;5088318;28;43378;-70
2023/05/23 06:49:05;;;;;;;5.23;5.03;;;21.20;70.00;;;;;;5090916;28;43430;-69
2023/05/23 06:51:44;;;;;;;5.30;5.00;;;21.10;70.00;;;;;;5091544;28;43430;-69
2023/05/23 06:54:13;;;;;;;5.47;5.17;;;21.10;70.30;;;;;;5090706;28;44810;-69
2023/05/23 06:56:44;;;;;;;5.50;5.10;;;21.10;70.10;;;;;;5091105;28;44971;-69
2023/05/23 06:59:12;;;;;;;5.00;4.70;;;21.30;69.80;;;;;;5090815;28;43395;-69
2023/05/23 07:01:40;;;;;;;4.67;4.47;;;21.50;69.40;;;;;;5093000;27;44035;-70
2023/05/23 07:04:10;;;;;;;4.70;4.50;;;21.50;69.00;;;;;;5091761;27;43925;-71
2023/05/23 07:06:39;;;;;;;5.00;4.80;;;21.50;68.80;;;;;;5089985;28;44977;-69
2023/05/23 07:09:10;;;;;;;5.13;4.93;;;21.50;68.90;;;;;;5089957;28;43417;-70
2023/05/23 07:11:40;;;;;;;4.67;4.57;;;21.40;69.00;;;;;;5090957;28;44241;-69
2023/05/23 07:14:09;;;;;;;4.87;4.67;;;21.30;69.40;;;;;;5089985;27;44021;-70
2023/05/23 07:16:41;;;;;;;5.17;4.87;;;21.30;69.60;;;;;;5090188;28;44453;-69
2023/05/23 07:19:09;;;;;;;4.70;4.50;;;21.30;69.60;;;;;;5090617;28;43324;-72
2023/05/23 07:21:44;;;;;;;4.70;4.50;;;21.20;69.50;;;;;;5091011;28;43569;-69
2023/05/23 07:24:15;;;;;;;4.63;4.43;;;21.20;69.70;;;;;;5090086;27;44056;-70
2023/05/23 07:26:43;;;;;;;5.17;4.97;;;21.10;70.00;;;;;;5089806;28;44725;-71
2023/05/23 07:29:12;;;;;;;4.60;4.40;;;21.20;70.00;;;;;;5084285;28;44022;-69
2023/05/23 07:31:40;;;;;;;4.60;4.40;;;21.20;70.00;;;;;;5090781;28;43438;-69
2023/05/23 07:34:09;;;;;;;4.90;4.70;;;21.20;69.90;;;;;;5090029;28;45770;-70
2023/05/23 07:36:49;;;;;;;4.90;4.70;;;21.10;69.90;;;;;;5084029;27;43383;-70
2023/05/23 07:39:21;;;;;;;5.00;4.80;;;21.10;70.20;;;;;;5088791;28;43928;-70
2023/05/23 07:41:50;;;;;;;4.73;4.63;;;21.20;70.30;;;;;;5089978;28;43513;-70
2023/05/23 07:44:19;;;;;;;4.90;4.70;;;21.20;69.90;;;;;;5090140;28;45680;-70
2023/05/23 07:46:51;;;;;;;4.67;4.47;;;21.40;69.50;;;;;;5090205;28;44724;-69
2023/05/23 07:49:20;;;;;;;4.67;4.50;;;21.40;69.10;;;;;;5090679;28;43466;-70
2023/05/23 07:51:48;;;;;;;4.60;4.40;;;21.50;69.00;;;;;;5087593;27;43587;-70
2023/05/23 07:54:17;;;;;;;4.30;4.10;;;21.50;69.10;;;;;;5088514;28;44733;-70
2023/05/23 07:56:46;;;;;;;4.60;4.37;;;21.40;69.10;;;;;;5090602;27;45004;-69
2023/05/23 07:59:15;;;;;;;4.33;4.13;;;21.30;69.30;;;;;;5090806;28;43520;-70
2023/05/23 08:01:44;;;;;;;4.67;4.47;;;21.30;69.60;;;;;;5090868;28;43631;-70
2023/05/23 08:04:18;;;;;;;4.73;4.53;;;21.20;70.30;;;;;;5090190;28;46041;-70
2023/05/23 08:06:52;;;;;;;4.07;3.93;;;21.20;69.50;;;;;;5091582;28;43445;-69
2023/05/23 08:09:59;;;;;;;4.40;4.20;;;21.20;69.70;;;;;;5091334;27;43545;-69
2023/05/23 08:12:27;;;;;;;4.23;4.03;;;21.10;70.70;;;;;;5084758;28;43568;-69
2023/05/23 08:15:12;;;;;;;4.83;4.60;;;21.20;70.10;;;;;;5083790;28;45709;-70
2023/05/23 08:17:50;;;;;;;4.40;4.20;;;21.20;69.80;;;;;;5089561;27;44014;-70
2023/05/23 08:20:18;;;;;;;4.10;4.00;;;21.30;69.60;;;;;;5089457;28;43367;-70
2023/05/23 08:22:47;;;;;;;4.07;3.97;;;21.30;69.40;;;;;;5089242;27;43414;-70
2023/05/23 08:25:16;;;;;;;4.00;3.90;;;21.30;69.30;;;;;;5089282;28;45259;-69
2023/05/23 08:27:44;;;;;;;4.13;4.03;;;21.30;69.60;;;;;;5089476;28;44427;-70
2023/05/23 08:30:32;;;;;;;3.73;3.63;;;21.30;69.60;;;;;;5093013;28;43372;-70
2023/05/23 08:33:03;;;;;;;4.30;4.10;;;21.30;69.60;;;;;;5093011;27;43429;-69
2023/05/23 08:35:35;;;;;;;3.70;3.60;;;21.20;69.50;;;;;;5092981;28;45849;-69
2023/05/23 08:38:07;;;;;;;3.60;3.50;;;21.20;69.50;;;;;;5093214;28;44931;-71
2023/05/23 08:40:40;;;;;;;3.80;3.70;;;21.20;70.80;;;;;;5093025;27;43955;-69
2023/05/23 08:43:12;;;;;;;4.10;3.93;;;21.20;70.10;;;;;;5094041;28;43404;-69
2023/05/23 08:45:40;;;;;;;3.60;3.50;;;21.10;69.80;;;;;;5093338;28;45013;-70
2023/05/23 08:48:08;;;;;;;3.80;3.70;;;21.10;69.80;;;;;;5093024;28;44952;-70
2023/05/23 08:50:41;;;;;;;3.70;3.60;;;21.10;69.90;;;;;;5092823;28;43949;-69
2023/05/23 08:53:10;;;;;;;3.77;3.67;;;21.10;70.20;;;;;;5090782;27;43449;-70
2023/05/23 08:55:41;;;;;;;3.60;3.50;;;21.10;70.10;;;;;;5092350;28;45101;-70
2023/05/23 08:58:09;;;;;;;4.00;3.90;;;21.10;70.00;;;;;;5094868;27;43473;-70
2023/05/23 09:00:46;;;;;;;3.50;3.40;;;21.10;70.00;;;;;;5092932;28;43509;-72
2023/05/23 09:03:14;;;;;;;3.40;3.30;;;21.00;70.10;;;;;;5093342;28;43601;-69
2023/05/23 09:06:02;;;;;;;3.47;3.37;;;21.00;70.20;;;;;;5093509;27;44751;-69
2023/05/23 09:08:31;;;;;;;3.67;3.57;;;21.10;70.00;;;;;;5092639;28;44834;-69
2023/05/23 09:11:01;;;;;;;3.40;3.30;;;21.30;69.70;;;;;;5086198;28;43998;-69
2023/05/23 09:13:32;;;;;;;3.40;3.30;;;21.40;69.30;;;;;;5093435;27;43450;-70
2023/05/23 09:16:04;;;;;;;3.37;3.27;;;21.40;69.10;;;;;;5086816;28;43963;-69
2023/05/23 09:18:41;;;;;;;3.20;3.10;;;21.40;69.00;;;;;;5092455;28;43372;-69
2023/05/23 09:21:12;;;;;;;3.20;3.10;;;21.30;69.00;;;;;;5092537;28;43384;-70
2023/05/23 09:23:51;;;;;;;3.27;3.17;;;21.30;69.20;;;;;;5092234;28;43613;-69
2023/05/23 09:26:20;;;;;;;3.20;3.10;;;21.20;69.50;;;;;;5092202;28;45426;-69
2023/05/23 09:28:51;;;;;;;3.10;3.00;;;21.20;69.60;;;;;;5092527;27;44693;-69
2023/05/23 09:31:22;;;;;;;3.37;3.17;;;21.20;69.50;;;;;;5094904;27;44109;-69
2023/05/23 09:33:50;;;;;;;3.57;3.47;;;21.10;69.50;;;;;;5092617;28;43944;-70
2023/05/23 09:36:19;;;;;;;3.20;3.10;;;21.10;69.80;;;;;;5095686;27;43683;-69
2023/05/23 09:38:48;;;;;;;3.60;3.50;;;21.10;70.10;;;;;;5091558;27;44604;-69
2023/05/23 09:41:19;;;;;;;3.00;2.90;;;21.10;70.00;;;;;;5093939;27;43430;-72
2023/05/23 09:43:51;;;;;;;3.00;3.00;;;21.10;69.90;;;;;;5092446;27;43447;-71
2023/05/23 09:46:20;;;;;;;3.10;3.00;;;21.10;70.00;;;;;;5081952;28;43913;-70
2023/05/23 09:48:52;;;;;;;3.13;3.03;;;21.10;70.20;;;;;;5096165;27;44409;-69
2023/05/23 09:51:21;;;;;;;2.77;2.70;;;21.00;70.20;;;;;;5093985;27;43363;-69
2023/05/23 09:53:49;;;;;;;3.10;3.00;;;21.10;70.20;;;;;;5091926;28;43529;-70
2023/05/23 09:56:17;;;;;;;3.23;3.13;;;21.20;69.80;;;;;;5091790;28;45694;-71
2023/05/23 09:58:47;;;;;;;3.17;3.07;;;21.40;69.50;;;;;;5093015;27;43428;-70
2023/05/23 10:01:16;;;;;;;3.10;3.00;;;21.40;69.30;;;;;;5092876;28;43481;-70
2023/05/23 10:03:46;;;;;;;2.63;2.63;;;21.40;69.20;;;;;;5093022;27;43418;-70
2023/05/23 10:06:17;;;;;;;2.93;2.83;;;21.30;69.10;;;;;;5094925;27;43603;-70
2023/05/23 10:08:46;;;;;;;2.83;2.67;;;21.30;69.30;;;;;;5092789;28;43462;-69
2023/05/23 10:11:45;;;;;;;2.70;2.70;;;21.20;69.70;;;;;;5093582;28;43395;-69
2023/05/23 10:14:13;;;;;;;2.50;2.50;;;21.20;69.80;;;;;;5092946;27;43466;-69
2023/05/23 10:16:47;;;;;;;3.00;3.00;;;21.20;69.80;;;;;;5090710;27;45673;-69
2023/05/23 10:19:20;;;;;;;2.80;2.70;;;21.20;69.80;;;;;;5089552;28;43397;-70
2023/05/23 10:21:50;;;;;;;2.90;2.80;;;21.10;69.80;;;;;;5091389;28;43437;-70
2023/05/23 10:24:20;;;;;;;2.90;2.83;;;21.10;70.20;;;;;;5093087;27;43454;-70
2023/05/23 10:26:48;;;;;;;2.90;2.80;;;21.10;70.10;;;;;;5088068;27;43747;-69
2023/05/23 10:29:17;;;;;;;3.03;2.93;;;21.20;69.90;;;;;;5090965;27;44645;-72
2023/05/23 10:31:46;;;;;;;2.47;2.47;;;21.30;69.60;;;;;;5087811;27;43413;-70
2023/05/23 10:34:17;;;;;;;2.40;2.40;;;21.40;69.30;;;;;;5091839;28;43500;-70
2023/05/23 10:36:51;;;;;;;2.57;2.57;;;21.40;69.30;;;;;;5092236;27;43599;-69
2023/05/23 10:39:22;;;;;;;2.43;2.43;;;21.30;69.10;;;;;;5092470;27;43369;-70
2023/05/23 10:41:52;;;;;;;2.70;2.70;;;21.30;69.20;;;;;;5093294;27;43387;-69
2023/05/23 10:44:23;;;;;;;2.40;2.40;;;21.20;69.50;;;;;;5092741;27;43567;-70
2023/05/23 10:46:53;;;;;;;2.43;2.43;;;21.20;69.80;;;;;;5087900;27;43696;-70
2023/05/23 10:49:21;;;;;;;2.83;2.73;;;21.10;69.70;;;;;;5088861;27;44902;-70
2023/05/23 10:51:50;;;;;;;2.17;2.17;;;21.20;69.80;;;;;;5093159;27;43446;-69
2023/05/23 10:54:19;;;;;;;2.30;2.30;;;21.10;69.80;;;;;;5091408;28;43471;-69
2023/05/23 10:56:47;;;;;;;2.37;2.37;;;21.10;70.20;;;;;;5092432;27;43866;-72
2023/05/23 10:59:22;;;;;;;2.30;2.30;;;21.10;70.20;;;;;;5092628;27;43413;-69
2023/05/23 11:01:51;;;;;;;2.40;2.30;;;21.10;70.10;;;;;;5091077;27;43437;-69
2023/05/23 11:04:26;;;;;;;2.50;2.40;;;21.10;70.10;;;;;;5092802;27;43969;-69
2023/05/23 11:06:55;;;;;;;2.53;2.50;;;21.00;70.10;;;;;;5085172;28;43828;-69
2023/05/23 11:09:23;;;;;;;2.47;2.47;;;21.00;70.40;;;;;;5089699;28;45010;-70
2023/05/23 11:11:52;;;;;;;2.60;2.60;;;21.00;70.40;;;;;;5092700;27;43398;-69
2023/05/23 11:14:20;;;;;;;2.27;2.27;;;21.00;70.20;;;;;;5092522;27;43514;-69
2023/05/23 11:16:48;;;;;;;2.73;2.63;;;21.00;70.20;;;;;;5089885;28;46336;-69
2023/05/23 11:19:26;;;;;;;2.20;2.20;;;21.00;70.20;;;;;;5092236;28;43377;-70
2023/05/23 11:21:58;;;;;;;2.23;2.23;;;21.00;70.60;;;;;;5090330;27;43347;-69
2023/05/23 11:24:47;;;;;;;2.30;2.30;;;21.10;71.30;;;;;;5092807;27;43379;-69
2023/05/23 11:27:18;;;;;;;2.20;2.20;;;21.20;70.20;;;;;;5092085;27;43630;-74
2023/05/23 11:29:57;;;;;;;2.27;2.27;;;21.30;69.60;;;;;;5095116;27;43907;-70
2023/05/23 11:32:27;;;;;;;2.30;2.27;;;21.40;69.30;;;;;;5094202;28;43395;-70
2023/05/23 11:34:55;;;;;;;2.37;2.30;;;21.40;69.10;;;;;;5096735;27;43446;-70
2023/05/23 11:37:24;;;;;;;2.40;2.40;;;21.40;69.90;;;;;;5096305;27;43761;-70
2023/05/23 11:39:55;;;;;;;2.20;2.20;;;21.30;69.10;;;;;;5094899;27;44345;-70
2023/05/23 11:42:23;;;;;;;2.20;2.20;;;21.30;69.40;;;;;;5096242;27;43449;-70
2023/05/23 11:44:51;;;;;;;2.37;2.37;;;21.20;69.70;;;;;;5096884;28;43454;-70
2023/05/23 11:47:20;;;;;;;2.77;2.67;;;21.20;69.70;;;;;;5095929;27;43843;-70
2023/05/23 11:49:48;;;;;;;2.23;2.23;;;21.20;69.80;;;;;;5095236;27;43414;-71
2023/05/23 11:52:16;;;;;;;2.63;2.53;;;21.10;69.60;;;;;;5096010;27;44440;-70
2023/05/23 11:54:45;;;;;;;2.00;2.00;;;21.10;69.90;;;;;;5095251;27;43395;-70
2023/05/23 11:57:13;;;;;;;2.40;2.40;;;21.10;70.90;;;;;;5095958;28;43761;-70
2023/05/23 11:59:41;;;;;;;2.30;2.30;;;21.10;70.10;;;;;;5091799;28;43940;-70
2023/05/23 12:02:09;;;;;;;2.50;2.50;;;21.10;70.00;;;;;;5089079;27;43398;-70
2023/05/23 12:04:37;;;;;;;2.57;2.47;;;21.10;70.00;;;;;;5096998;27;43388;-70
2023/05/23 12:07:07;;;;;;;2.40;2.40;;;21.00;70.10;;;;;;5094892;28;46127;-70
2023/05/23 12:09:42;;;;;;;2.47;2.43;;;21.00;70.20;;;;;;5096720;27;43390;-70
2023/05/23 12:12:12;;;;;;;2.53;2.43;;;21.10;70.00;;;;;;5095713;27;43486;-71
2023/05/23 12:14:43;;;;;;;2.60;2.60;;;21.20;69.70;;;;;;5096377;27;43427;-70
2023/05/23 12:17:12;;;;;;;2.30;2.30;;;21.20;69.50;;;;;;5096307;27;43886;-70
2023/05/23 12:19:45;;;;;;;2.27;2.27;;;21.20;69.50;;;;;;5096965;27;44965;-70
2023/05/23 12:22:13;;;;;;;2.60;2.50;;;21.20;69.70;;;;;;5095412;28;44029;-70
2023/05/23 12:24:45;;;;;;;2.70;2.70;;;21.20;69.70;;;;;;5097223;27;43387;-70
2023/05/23 12:27:16;;;;;;;2.20;2.20;;;21.10;69.60;;;;;;5095267;28;44015;-70
2023/05/23 12:29:50;;;;;;;2.50;2.50;;;21.10;69.50;;;;;;5096846;27;43437;-70
2023/05/23 12:32:18;;;;;;;2.60;2.60;;;21.10;69.60;;;;;;5092926;28;43923;-70
2023/05/23 12:34:46;;;;;;;2.50;2.50;;;21.10;70.00;;;;;;5097225;27;43434;-70
2023/05/23 12:37:14;;;;;;;2.73;2.73;;;21.10;69.90;;;;;;5095357;27;43679;-70
2023/05/23 12:39:47;;;;;;;2.50;2.47;;;21.10;69.90;;;;;;5090212;27;43339;-70
2023/05/23 12:42:16;;;;;;;2.53;2.53;;;21.10;69.90;;;;;;5096268;28;43425;-70
2023/05/23 12:44:44;;;;;;;2.40;2.40;;;21.00;70.10;;;;;;5096654;28;43453;-70
2023/05/23 12:47:13;;;;;;;2.40;2.40;;;21.00;70.10;;;;;;5092446;28;43931;-70
2023/05/23 12:49:43;;;;;;;2.50;2.50;;;21.10;70.00;;;;;;5090140;28;43418;-70
2023/05/23 12:52:11;;;;;;;2.63;2.60;;;21.20;69.50;;;;;;5094170;28;43439;-70
2023/05/23 12:54:39;;;;;;;2.37;2.37;;;21.30;69.30;;;;;;5094852;28;43954;-70
2023/05/23 12:57:07;;;;;;;2.37;2.27;;;21.30;69.10;;;;;;5095130;28;43599;-70
2023/05/23 12:59:36;;;;;;;2.40;2.40;;;21.30;69.10;;;;;;5096035;27;43461;-70
2023/05/23 13:02:04;;;;;;;2.50;2.40;;;21.30;69.10;;;;;;5095103;27;43407;-70